sensor_id;sensor_type;location;lat;lon;timestamp;pressure;altitude;pressure_sealevel;temperature;humidity
14067;BME280;7108;42.684;23.350;2023-02-18T00:01:14;96101.38;;;5.49;89.82
14067;BME280;7108;42.684;23.350;2023-02-18T00:03:40;96100.75;;;5.52;89.64
14067;BME280;7108;42.684;23.350;2023-02-18T00:08:47;96108.13;;;5.47;90.17
14067;BME280;7108;42.684;23.350;2023-02-18T00:11:13;96094.22;;;5.36;91.33
14067;BME280;7108;42.684;23.350;2023-02-18T00:13:39;96094.38;;;5.40;91.71
14067;BME280;7108;42.684;23.350;2023-02-18T00:16:07;96091.06;;;5.34;91.65
14067;BME280;7108;42.684;23.350;2023-02-18T00:18:33;96085.72;;;5.34;92.53
14067;BME280;7108;42.684;23.350;2023-02-18T00:20:59;96087.28;;;5.35;92.34
14067;BME280;7108;42.684;23.350;2023-02-18T00:23:25;96078.25;;;5.23;94.74
14067;BME280;7108;42.684;23.350;2023-02-18T00:26:09;96075.28;;;5.24;95.61
14067;BME280;7108;42.684;23.350;2023-02-18T00:28:35;96067.97;;;5.17;97.85
14067;BME280;7108;42.684;23.350;2023-02-18T00:31:12;96068.28;;;5.15;95.94
14067;BME280;7108;42.684;23.350;2023-02-18T00:33:39;96061.06;;;5.16;95.56
14067;BME280;7108;42.684;23.350;2023-02-18T00:36:06;96047.25;;;5.00;95.56
14067;BME280;7108;42.684;23.350;2023-02-18T00:38:32;96053.25;;;5.06;96.63
14067;BME280;7108;42.684;23.350;2023-02-18T00:40:58;96054.97;;;5.02;99.19
14067;BME280;7108;42.684;23.350;2023-02-18T00:43:24;96053.69;;;4.99;99.18
14067;BME280;7108;42.684;23.350;2023-02-18T00:45:49;96050.13;;;5.04;99.94
14067;BME280;7108;42.684;23.350;2023-02-18T00:48:15;96049.16;;;5.00;99.88
14067;BME280;7108;42.684;23.350;2023-02-18T00:50:40;96045.75;;;5.08;99.53
14067;BME280;7108;42.684;23.350;2023-02-18T00:53:06;96038.16;;;5.01;100.00
14067;BME280;7108;42.684;23.350;2023-02-18T00:55:31;96038.94;;;5.02;97.84
14067;BME280;7108;42.684;23.350;2023-02-18T00:57:57;96039.19;;;4.92;96.98
14067;BME280;7108;42.684;23.350;2023-02-18T01:00:22;96040.75;;;4.93;96.81
14067;BME280;7108;42.684;23.350;2023-02-18T01:02:50;96052.78;;;5.04;97.12
14067;BME280;7108;42.684;23.350;2023-02-18T01:05:18;96059.66;;;4.96;97.49
14067;BME280;7108;42.684;23.350;2023-02-18T01:07:44;96054.13;;;4.93;98.03
14067;BME280;7108;42.684;23.350;2023-02-18T01:10:09;96046.81;;;4.85;98.33
14067;BME280;7108;42.684;23.350;2023-02-18T01:12:35;96049.56;;;4.93;98.05
14067;BME280;7108;42.684;23.350;2023-02-18T01:15:01;96055.19;;;4.92;98.89
14067;BME280;7108;42.684;23.350;2023-02-18T01:17:26;96043.16;;;4.81;99.94
14067;BME280;7108;42.684;23.350;2023-02-18T01:19:52;96046.22;;;4.88;99.45
14067;BME280;7108;42.684;23.350;2023-02-18T01:22:17;96040.28;;;4.91;99.36
14067;BME280;7108;42.684;23.350;2023-02-18T01:24:42;96045.72;;;4.86;100.00
14067;BME280;7108;42.684;23.350;2023-02-18T01:27:08;96046.81;;;4.85;100.00
14067;BME280;7108;42.684;23.350;2023-02-18T01:29:33;96042.34;;;4.94;100.00
14067;BME280;7108;42.684;23.350;2023-02-18T01:31:59;96048.28;;;4.91;99.74
14067;BME280;7108;42.684;23.350;2023-02-18T01:34:24;96034.81;;;4.74;100.00
14067;BME280;7108;42.684;23.350;2023-02-18T01:36:50;96036.09;;;4.76;100.00
14067;BME280;7108;42.684;23.350;2023-02-18T01:39:15;96034.97;;;4.77;100.00
14067;BME280;7108;42.684;23.350;2023-02-18T01:41:40;96052.50;;;4.70;100.00
14067;BME280;7108;42.684;23.350;2023-02-18T01:44:21;96044.97;;;4.72;100.00
14067;BME280;7108;42.684;23.350;2023-02-18T01:46:47;96042.69;;;4.79;100.00
14067;BME280;7108;42.684;23.350;2023-02-18T01:49:23;96049.22;;;4.73;100.00
14067;BME280;7108;42.684;23.350;2023-02-18T01:52:02;96058.03;;;4.73;100.00
14067;BME280;7108;42.684;23.350;2023-02-18T01:54:40;96053.09;;;4.67;100.00
14067;BME280;7108;42.684;23.350;2023-02-18T01:59:56;96065.91;;;4.43;100.00
14067;BME280;7108;42.684;23.350;2023-02-18T02:02:26;96065.50;;;4.50;100.00
14067;BME280;7108;42.684;23.350;2023-02-18T02:04:52;96061.13;;;4.53;100.00
14067;BME280;7108;42.684;23.350;2023-02-18T02:07:19;96047.13;;;4.35;100.00
14067;BME280;7108;42.684;23.350;2023-02-18T02:09:47;96044.84;;;4.42;100.00
14067;BME280;7108;42.684;23.350;2023-02-18T02:24:35;96064.88;;;4.53;100.00
14067;BME280;7108;42.684;23.350;2023-02-18T02:27:25;96057.91;;;4.43;100.00
14067;BME280;7108;42.684;23.350;2023-02-18T02:36:18;96041.59;;;4.31;100.00
14067;BME280;7108;42.684;23.350;2023-02-18T02:39:01;96037.34;;;4.17;100.00
14067;BME280;7108;42.684;23.350;2023-02-18T02:41:37;96042.19;;;4.28;100.00
14067;BME280;7108;42.684;23.350;2023-02-18T02:47:48;96028.06;;;4.28;100.00
14067;BME280;7108;42.684;23.350;2023-02-18T02:49:59;96023.72;;;4.18;100.00
14067;BME280;7108;42.684;23.350;2023-02-18T02:52:50;96027.19;;;4.19;100.00
14067;BME280;7108;42.684;23.350;2023-02-18T02:55:16;96038.06;;;4.22;100.00
14067;BME280;7108;42.684;23.350;2023-02-18T02:57:45;96037.97;;;4.27;100.00
14067;BME280;7108;42.684;23.350;2023-02-18T03:00:13;96052.59;;;4.16;100.00
14067;BME280;7108;42.684;23.350;2023-02-18T03:05:52;96052.97;;;4.10;100.00
14067;BME280;7108;42.684;23.350;2023-02-18T03:11:15;96041.41;;;4.01;100.00
14067;BME280;7108;42.684;23.350;2023-02-18T03:16:12;96042.38;;;4.05;100.00
14067;BME280;7108;42.684;23.350;2023-02-18T03:19:00;96046.75;;;4.14;100.00
14067;BME280;7108;42.684;23.350;2023-02-18T03:26:54;96057.00;;;4.21;100.00
14067;BME280;7108;42.684;23.350;2023-02-18T03:29:21;96069.75;;;4.24;100.00
14067;BME280;7108;42.684;23.350;2023-02-18T03:31:51;96085.56;;;4.20;100.00
14067;BME280;7108;42.684;23.350;2023-02-18T03:34:24;96088.44;;;4.24;100.00
14067;BME280;7108;42.684;23.350;2023-02-18T03:36:51;96092.38;;;3.99;100.00
14067;BME280;7108;42.684;23.350;2023-02-18T03:39:19;96090.59;;;4.08;100.00
14067;BME280;7108;42.684;23.350;2023-02-18T03:41:45;96081.09;;;4.02;100.00
14067;BME280;7108;42.684;23.350;2023-02-18T03:44:11;96092.38;;;3.99;100.00
14067;BME280;7108;42.684;23.350;2023-02-18T03:46:39;96079.72;;;4.05;100.00
14067;BME280;7108;42.684;23.350;2023-02-18T03:49:07;96101.75;;;4.10;100.00
14067;BME280;7108;42.684;23.350;2023-02-18T03:51:32;96100.56;;;4.03;100.00
14067;BME280;7108;42.684;23.350;2023-02-18T03:53:58;96092.03;;;3.88;100.00
14067;BME280;7108;42.684;23.350;2023-02-18T03:56:23;96089.97;;;3.85;100.00
14067;BME280;7108;42.684;23.350;2023-02-18T03:58:49;96101.75;;;3.97;100.00
14067;BME280;7108;42.684;23.350;2023-02-18T04:01:14;96090.31;;;3.96;100.00
14067;BME280;7108;42.684;23.350;2023-02-18T04:03:40;96087.44;;;4.06;100.00
14067;BME280;7108;42.684;23.350;2023-02-18T04:06:06;96083.75;;;4.02;100.00
14067;BME280;7108;42.684;23.350;2023-02-18T04:08:31;96082.38;;;4.05;100.00
14067;BME280;7108;42.684;23.350;2023-02-18T04:10:57;96080.41;;;3.97;100.00
14067;BME280;7108;42.684;23.350;2023-02-18T04:13:22;96091.47;;;3.90;100.00
14067;BME280;7108;42.684;23.350;2023-02-18T04:15:49;96088.59;;;3.87;100.00
14067;BME280;7108;42.684;23.350;2023-02-18T04:18:15;96069.03;;;3.91;100.00
14067;BME280;7108;42.684;23.350;2023-02-18T04:20:41;96066.19;;;3.88;100.00
14067;BME280;7108;42.684;23.350;2023-02-18T04:23:06;96070.63;;;3.92;100.00
14067;BME280;7108;42.684;23.350;2023-02-18T04:25:32;96058.78;;;3.85;100.00
14067;BME280;7108;42.684;23.350;2023-02-18T04:27:57;96066.78;;;3.85;100.00
14067;BME280;7108;42.684;23.350;2023-02-18T04:30:23;96051.59;;;3.86;100.00
14067;BME280;7108;42.684;23.350;2023-02-18T04:32:48;96071.03;;;3.86;100.00
14067;BME280;7108;42.684;23.350;2023-02-18T04:35:14;96060.06;;;3.88;100.00
14067;BME280;7108;42.684;23.350;2023-02-18T04:37:39;96063.81;;;3.87;100.00
14067;BME280;7108;42.684;23.350;2023-02-18T04:40:05;96062.25;;;3.86;100.00
14067;BME280;7108;42.684;23.350;2023-02-18T04:42:31;96048.50;;;3.79;100.00
14067;BME280;7108;42.684;23.350;2023-02-18T04:44:56;96058.56;;;3.82;100.00
14067;BME280;7108;42.684;23.350;2023-02-18T04:47:22;96076.56;;;3.89;100.00
14067;BME280;7108;42.684;23.350;2023-02-18T04:49:48;96075.66;;;3.81;100.00
14067;BME280;7108;42.684;23.350;2023-02-18T04:52:13;96072.50;;;3.79;100.00
14067;BME280;7108;42.684;23.350;2023-02-18T04:54:39;96079.97;;;3.77;100.00
14067;BME280;7108;42.684;23.350;2023-02-18T04:57:04;96074.97;;;3.75;100.00
14067;BME280;7108;42.684;23.350;2023-02-18T04:59:30;96081.28;;;3.79;100.00
14067;BME280;7108;42.684;23.350;2023-02-18T05:01:55;96088.78;;;3.77;100.00
14067;BME280;7108;42.684;23.350;2023-02-18T05:04:21;96092.22;;;3.78;100.00
14067;BME280;7108;42.684;23.350;2023-02-18T05:06:46;96095.41;;;3.80;100.00
14067;BME280;7108;42.684;23.350;2023-02-18T05:09:12;96098.38;;;3.78;100.00
14067;BME280;7108;42.684;23.350;2023-02-18T05:11:38;96089.97;;;3.85;100.00
14067;BME280;7108;42.684;23.350;2023-02-18T05:14:04;96065.78;;;3.68;100.00
14067;BME280;7108;42.684;23.350;2023-02-18T05:16:29;96077.19;;;3.55;100.00
14067;BME280;7108;42.684;23.350;2023-02-18T05:18:54;96075.31;;;3.55;100.00
14067;BME280;7108;42.684;23.350;2023-02-18T05:21:20;96069.91;;;3.60;100.00
14067;BME280;7108;42.684;23.350;2023-02-18T05:23:45;96060.53;;;3.63;100.00
14067;BME280;7108;42.684;23.350;2023-02-18T05:26:11;96072.41;;;3.38;100.00
14067;BME280;7108;42.684;23.350;2023-02-18T05:28:36;96082.19;;;3.43;100.00
14067;BME280;7108;42.684;23.350;2023-02-18T05:31:01;96084.28;;;3.59;100.00
14067;BME280;7108;42.684;23.350;2023-02-18T05:33:27;96067.16;;;3.65;100.00
14067;BME280;7108;42.684;23.350;2023-02-18T05:35:53;96064.59;;;3.74;100.00
14067;BME280;7108;42.684;23.350;2023-02-18T05:38:18;96071.91;;;3.82;100.00
14067;BME280;7108;42.684;23.350;2023-02-18T05:40:44;96083.38;;;3.82;100.00
14067;BME280;7108;42.684;23.350;2023-02-18T05:43:09;96078.25;;;3.86;100.00
14067;BME280;7108;42.684;23.350;2023-02-18T05:45:35;96068.75;;;3.80;100.00
14067;BME280;7108;42.684;23.350;2023-02-18T05:48:00;96076.16;;;3.83;100.00
14067;BME280;7108;42.684;23.350;2023-02-18T05:50:25;96070.16;;;3.90;100.00
14067;BME280;7108;42.684;23.350;2023-02-18T05:52:51;96077.72;;;3.84;100.00
14067;BME280;7108;42.684;23.350;2023-02-18T05:55:16;96084.75;;;3.93;100.00
14067;BME280;7108;42.684;23.350;2023-02-18T05:57:42;96097.81;;;4.08;100.00
14067;BME280;7108;42.684;23.350;2023-02-18T06:00:08;96107.28;;;4.14;100.00
14067;BME280;7108;42.684;23.350;2023-02-18T06:02:35;96110.06;;;4.09;100.00
14067;BME280;7108;42.684;23.350;2023-02-18T06:05:00;96095.63;;;4.23;100.00
14067;BME280;7108;42.684;23.350;2023-02-18T06:07:26;96092.69;;;4.25;100.00
14067;BME280;7108;42.684;23.350;2023-02-18T06:09:51;96082.69;;;4.30;100.00
14067;BME280;7108;42.684;23.350;2023-02-18T06:12:17;96085.06;;;4.45;100.00
14067;BME280;7108;42.684;23.350;2023-02-18T06:14:43;96093.44;;;4.52;100.00
14067;BME280;7108;42.684;23.350;2023-02-18T06:17:10;96092.94;;;4.63;100.00
14067;BME280;7108;42.684;23.350;2023-02-18T06:19:36;96091.63;;;4.74;100.00
14067;BME280;7108;42.684;23.350;2023-02-18T06:22:02;96076.41;;;4.75;100.00
14067;BME280;7108;42.684;23.350;2023-02-18T06:24:28;96079.03;;;4.88;100.00
14067;BME280;7108;42.684;23.350;2023-02-18T06:26:53;96084.97;;;4.99;100.00
14067;BME280;7108;42.684;23.350;2023-02-18T06:29:19;96063.28;;;5.00;100.00
14067;BME280;7108;42.684;23.350;2023-02-18T06:31:44;96082.44;;;5.16;100.00
14067;BME280;7108;42.684;23.350;2023-02-18T06:34:10;96066.31;;;5.29;100.00
14067;BME280;7108;42.684;23.350;2023-02-18T06:36:35;96066.25;;;5.42;100.00
14067;BME280;7108;42.684;23.350;2023-02-18T06:39:03;96069.13;;;5.46;100.00
14067;BME280;7108;42.684;23.350;2023-02-18T06:41:29;96078.00;;;5.55;100.00
14067;BME280;7108;42.684;23.350;2023-02-18T06:43:54;96080.25;;;5.61;100.00
14067;BME280;7108;42.684;23.350;2023-02-18T06:46:20;96068.47;;;5.62;100.00
14067;BME280;7108;42.684;23.350;2023-02-18T06:48:45;96070.88;;;5.72;100.00
14067;BME280;7108;42.684;23.350;2023-02-18T06:51:11;96065.63;;;5.81;100.00
14067;BME280;7108;42.684;23.350;2023-02-18T06:53:36;96065.63;;;5.89;100.00
14067;BME280;7108;42.684;23.350;2023-02-18T06:56:02;96066.75;;;5.96;100.00
14067;BME280;7108;42.684;23.350;2023-02-18T06:58:27;96065.72;;;6.06;100.00
14067;BME280;7108;42.684;23.350;2023-02-18T07:00:53;96076.44;;;6.14;100.00
14067;BME280;7108;42.684;23.350;2023-02-18T07:03:18;96068.78;;;6.21;100.00
14067;BME280;7108;42.684;23.350;2023-02-18T07:05:43;96064.72;;;6.32;98.88
14067;BME280;7108;42.684;23.350;2023-02-18T07:08:09;96067.53;;;6.27;96.07
14067;BME280;7108;42.684;23.350;2023-02-18T07:10:34;96074.03;;;6.35;96.40
14067;BME280;7108;42.684;23.350;2023-02-18T07:13:00;96070.22;;;6.36;93.50
14067;BME280;7108;42.684;23.350;2023-02-18T07:15:26;96059.53;;;6.44;92.72
14067;BME280;7108;42.684;23.350;2023-02-18T07:17:52;96051.66;;;6.39;91.81
14067;BME280;7108;42.684;23.350;2023-02-18T07:20:19;96057.38;;;6.46;89.73
14067;BME280;7108;42.684;23.350;2023-02-18T07:22:44;96058.16;;;6.55;88.85
14067;BME280;7108;42.684;23.350;2023-02-18T07:25:10;96054.88;;;6.66;88.64
14067;BME280;7108;42.684;23.350;2023-02-18T07:27:35;96052.53;;;6.73;88.12
14067;BME280;7108;42.684;23.350;2023-02-18T07:30:01;96045.94;;;6.79;86.08
14067;BME280;7108;42.684;23.350;2023-02-18T07:32:26;96047.03;;;6.78;85.39
14067;BME280;7108;42.684;23.350;2023-02-18T07:34:52;96061.53;;;6.86;85.67
14067;BME280;7108;42.684;23.350;2023-02-18T07:37:19;96071.91;;;6.87;84.79
14067;BME280;7108;42.684;23.350;2023-02-18T07:39:44;96067.03;;;6.89;86.00
14067;BME280;7108;42.684;23.350;2023-02-18T07:42:10;96066.13;;;6.94;85.74
14067;BME280;7108;42.684;23.350;2023-02-18T07:44:37;96064.53;;;7.01;85.61
14067;BME280;7108;42.684;23.350;2023-02-18T07:47:04;96069.59;;;7.11;80.41
14067;BME280;7108;42.684;23.350;2023-02-18T07:49:30;96069.28;;;7.21;80.90
14067;BME280;7108;42.684;23.350;2023-02-18T07:51:55;96054.63;;;7.27;79.51
14067;BME280;7108;42.684;23.350;2023-02-18T07:54:21;96061.41;;;7.33;79.50
14067;BME280;7108;42.684;23.350;2023-02-18T07:56:46;96065.00;;;7.45;78.85
14067;BME280;7108;42.684;23.350;2023-02-18T07:59:13;96064.53;;;7.26;80.04
14067;BME280;7108;42.684;23.350;2023-02-18T08:01:39;96055.38;;;7.27;79.64
14067;BME280;7108;42.684;23.350;2023-02-18T08:04:05;96057.75;;;7.37;78.47
14067;BME280;7108;42.684;23.350;2023-02-18T08:06:33;96065.78;;;7.54;76.92
14067;BME280;7108;42.684;23.350;2023-02-18T08:08:59;96058.50;;;7.55;74.59
14067;BME280;7108;42.684;23.350;2023-02-18T08:11:25;96069.34;;;7.83;73.64
14067;BME280;7108;42.684;23.350;2023-02-18T08:13:50;96050.19;;;8.10;71.74
14067;BME280;7108;42.684;23.350;2023-02-18T08:16:17;96044.81;;;8.19;70.23
14067;BME280;7108;42.684;23.350;2023-02-18T08:18:43;96046.31;;;8.28;70.26
14067;BME280;7108;42.684;23.350;2023-02-18T08:21:09;96042.13;;;8.48;70.75
14067;BME280;7108;42.684;23.350;2023-02-18T08:23:34;96043.28;;;8.67;67.85
14067;BME280;7108;42.684;23.350;2023-02-18T08:26:00;96040.50;;;8.84;67.65
14067;BME280;7108;42.684;23.350;2023-02-18T08:28:26;96038.06;;;8.91;65.75
14067;BME280;7108;42.684;23.350;2023-02-18T08:30:53;96037.09;;;8.95;65.63
14067;BME280;7108;42.684;23.350;2023-02-18T08:33:19;96048.69;;;8.87;63.53
14067;BME280;7108;42.684;23.350;2023-02-18T08:35:46;96044.44;;;8.86;64.88
14067;BME280;7108;42.684;23.350;2023-02-18T08:38:12;96046.84;;;9.00;64.36
14067;BME280;7108;42.684;23.350;2023-02-18T08:40:37;96034.59;;;8.90;64.17
14067;BME280;7108;42.684;23.350;2023-02-18T08:43:05;96026.88;;;8.89;63.77
14067;BME280;7108;42.684;23.350;2023-02-18T08:45:30;96029.69;;;8.92;63.11
14067;BME280;7108;42.684;23.350;2023-02-18T08:47:56;96020.63;;;8.97;63.08
14067;BME280;7108;42.684;23.350;2023-02-18T08:50:21;96023.94;;;9.02;62.45
14067;BME280;7108;42.684;23.350;2023-02-18T08:52:51;96038.03;;;9.19;62.96
14067;BME280;7108;42.684;23.350;2023-02-18T08:55:16;96047.13;;;9.27;63.20
14067;BME280;7108;42.684;23.350;2023-02-18T08:57:45;96037.16;;;9.27;61.05
14067;BME280;7108;42.684;23.350;2023-02-18T09:00:11;96026.53;;;9.31;61.25
14067;BME280;7108;42.684;23.350;2023-02-18T09:02:37;96040.81;;;9.43;61.38
14067;BME280;7108;42.684;23.350;2023-02-18T09:05:03;96029.84;;;9.48;61.31
14067;BME280;7108;42.684;23.350;2023-02-18T09:07:29;96032.13;;;9.58;60.09
14067;BME280;7108;42.684;23.350;2023-02-18T09:09:54;96028.06;;;9.52;60.66
14067;BME280;7108;42.684;23.350;2023-02-18T09:12:20;96040.66;;;9.60;60.43
14067;BME280;7108;42.684;23.350;2023-02-18T09:14:48;96035.97;;;9.69;60.39
14067;BME280;7108;42.684;23.350;2023-02-18T09:17:14;96031.84;;;9.72;58.65
14067;BME280;7108;42.684;23.350;2023-02-18T09:19:39;96023.41;;;9.73;59.58
14067;BME280;7108;42.684;23.350;2023-02-18T09:22:04;96029.06;;;9.80;59.99
14067;BME280;7108;42.684;23.350;2023-02-18T09:24:30;96032.22;;;9.82;59.68
14067;BME280;7108;42.684;23.350;2023-02-18T09:26:55;96034.06;;;9.70;58.93
14067;BME280;7108;42.684;23.350;2023-02-18T09:29:21;96029.81;;;9.80;59.56
14067;BME280;7108;42.684;23.350;2023-02-18T09:31:46;96015.50;;;9.88;59.69
14067;BME280;7108;42.684;23.350;2023-02-18T09:34:12;96015.56;;;10.00;59.15
14067;BME280;7108;42.684;23.350;2023-02-18T09:36:37;96012.44;;;10.10;58.61
14067;BME280;7108;42.684;23.350;2023-02-18T09:39:05;96002.00;;;10.21;58.06
14067;BME280;7108;42.684;23.350;2023-02-18T09:41:44;96000.91;;;10.34;57.08
14067;BME280;7108;42.684;23.350;2023-02-18T09:44:38;95989.44;;;10.25;56.01
14067;BME280;7108;42.684;23.350;2023-02-18T09:49:54;96008.19;;;10.57;55.79
14067;BME280;7108;42.684;23.350;2023-02-18T09:52:26;96008.16;;;10.69;55.60
14067;BME280;7108;42.684;23.350;2023-02-18T09:54:53;96007.13;;;10.85;54.92
14067;BME280;7108;42.684;23.350;2023-02-18T10:00:00;95992.59;;;11.02;53.02
14067;BME280;7108;42.684;23.350;2023-02-18T10:02:27;95990.00;;;11.05;52.70
14067;BME280;7108;42.684;23.350;2023-02-18T10:04:54;95978.09;;;11.06;54.57
14067;BME280;7108;42.684;23.350;2023-02-18T10:07:26;95977.38;;;11.21;53.56
14067;BME280;7108;42.684;23.350;2023-02-18T10:09:53;95979.94;;;11.29;51.80
14067;BME280;7108;42.684;23.350;2023-02-18T10:12:22;95976.84;;;11.43;52.65
14067;BME280;7108;42.684;23.350;2023-02-18T10:14:53;95979.72;;;11.50;52.06
14067;BME280;7108;42.684;23.350;2023-02-18T10:17:22;95975.22;;;11.54;51.75
14067;BME280;7108;42.684;23.350;2023-02-18T10:19:50;95973.69;;;11.68;51.45
14067;BME280;7108;42.684;23.350;2023-02-18T10:22:17;95971.03;;;11.83;51.51
14067;BME280;7108;42.684;23.350;2023-02-18T10:27:16;95961.09;;;12.18;49.75
14067;BME280;7108;42.684;23.350;2023-02-18T10:29:42;95966.06;;;12.32;50.26
14067;BME280;7108;42.684;23.350;2023-02-18T10:32:26;95952.28;;;12.37;47.68
14067;BME280;7108;42.684;23.350;2023-02-18T10:35:06;95952.72;;;12.39;46.22
14067;BME280;7108;42.684;23.350;2023-02-18T10:51:16;95912.31;;;12.80;46.52
14067;BME280;7108;42.684;23.350;2023-02-18T10:53:44;95912.72;;;12.97;45.07
14067;BME280;7108;42.684;23.350;2023-02-18T10:59:17;95907.38;;;13.19;45.23
14067;BME280;7108;42.684;23.350;2023-02-18T11:01:43;95901.03;;;13.31;43.51
14067;BME280;7108;42.684;23.350;2023-02-18T11:04:17;95902.78;;;13.42;43.51
14067;BME280;7108;42.684;23.350;2023-02-18T11:06:46;95884.56;;;13.39;43.74
14067;BME280;7108;42.684;23.350;2023-02-18T11:14:48;95877.84;;;13.97;41.04
14067;BME280;7108;42.684;23.350;2023-02-18T11:17:26;95869.81;;;14.04;39.78
14067;BME280;7108;42.684;23.350;2023-02-18T11:19:58;95869.09;;;14.07;39.45
14067;BME280;7108;42.684;23.350;2023-02-18T11:22:28;95861.28;;;14.02;38.31
14067;BME280;7108;42.684;23.350;2023-02-18T11:25:18;95856.56;;;13.99;37.87
14067;BME280;7108;42.684;23.350;2023-02-18T11:27:45;95859.72;;;14.01;38.19
14067;BME280;7108;42.684;23.350;2023-02-18T11:32:45;95843.56;;;14.08;38.77
14067;BME280;7108;42.684;23.350;2023-02-18T11:35:20;95834.78;;;14.14;37.53
14067;BME280;7108;42.684;23.350;2023-02-18T11:37:47;95826.53;;;14.07;38.09
14067;BME280;7108;42.684;23.350;2023-02-18T11:40:25;95829.06;;;14.19;37.72
14067;BME280;7108;42.684;23.350;2023-02-18T11:43:22;95829.88;;;14.23;37.68
14067;BME280;7108;42.684;23.350;2023-02-18T11:46:07;95821.00;;;14.26;38.16
14067;BME280;7108;42.684;23.350;2023-02-18T11:48:32;95818.78;;;14.32;38.73
14067;BME280;7108;42.684;23.350;2023-02-18T11:51:00;95822.38;;;14.39;38.22
14067;BME280;7108;42.684;23.350;2023-02-18T11:53:32;95817.06;;;14.49;38.02
14067;BME280;7108;42.684;23.350;2023-02-18T11:56:02;95813.00;;;14.62;38.61
14067;BME280;7108;42.684;23.350;2023-02-18T11:58:39;95812.28;;;14.69;38.80
14067;BME280;7108;42.684;23.350;2023-02-18T12:01:11;95803.88;;;14.77;38.64
14067;BME280;7108;42.684;23.350;2023-02-18T12:03:42;95795.91;;;14.91;38.59
14067;BME280;7108;42.684;23.350;2023-02-18T12:06:27;95781.19;;;14.92;36.99
14067;BME280;7108;42.684;23.350;2023-02-18T12:08:57;95779.44;;;15.10;37.36
14067;BME280;7108;42.684;23.350;2023-02-18T12:11:34;95776.56;;;15.29;37.70
14067;BME280;7108;42.684;23.350;2023-02-18T12:14:01;95778.97;;;15.37;37.84
14067;BME280;7108;42.684;23.350;2023-02-18T12:16:37;95784.84;;;15.43;37.51
14067;BME280;7108;42.684;23.350;2023-02-18T12:19:39;95778.75;;;15.56;38.10
14067;BME280;7108;42.684;23.350;2023-02-18T12:22:16;95785.78;;;15.61;37.27
14067;BME280;7108;42.684;23.350;2023-02-18T12:33:00;95755.88;;;15.17;38.96
14067;BME280;7108;42.684;23.350;2023-02-18T12:50:12;95729.25;;;15.30;38.96
14067;BME280;7108;42.684;23.350;2023-02-18T12:52:59;95726.25;;;15.42;38.98
14067;BME280;7108;42.684;23.350;2023-02-18T13:01:01;95727.94;;;15.57;37.23
14067;BME280;7108;42.684;23.350;2023-02-18T13:11:33;95723.88;;;15.83;36.34
14067;BME280;7108;42.684;23.350;2023-02-18T13:14:11;95724.66;;;15.87;36.02
14067;BME280;7108;42.684;23.350;2023-02-18T13:16:40;95721.94;;;15.87;36.14
14067;BME280;7108;42.684;23.350;2023-02-18T13:21:58;95714.16;;;15.82;35.75
14067;BME280;7108;42.684;23.350;2023-02-18T13:24:34;95720.72;;;15.81;35.96
14067;BME280;7108;42.684;23.350;2023-02-18T13:29:51;95721.50;;;15.82;37.27
14067;BME280;7108;42.684;23.350;2023-02-18T13:38:09;95729.38;;;15.44;39.04
14067;BME280;7108;42.684;23.350;2023-02-18T13:40:37;95728.16;;;15.38;39.43
14067;BME280;7108;42.684;23.350;2023-02-18T13:46:21;95732.69;;;15.23;39.55
14067;BME280;7108;42.684;23.350;2023-02-18T13:54:00;95724.25;;;14.96;40.15
14067;BME280;7108;42.684;23.350;2023-02-18T13:56:33;95713.66;;;14.84;40.07
14067;BME280;7108;42.684;23.350;2023-02-18T14:04:49;95716.97;;;14.67;40.48
14067;BME280;7108;42.684;23.350;2023-02-18T14:25:49;95727.25;;;14.51;41.23
14067;BME280;7108;42.684;23.350;2023-02-18T14:33:31;95741.13;;;14.46;41.21
14067;BME280;7108;42.684;23.350;2023-02-18T14:38:51;95738.00;;;14.44;41.46
14067;BME280;7108;42.684;23.350;2023-02-18T14:44:27;95741.75;;;14.33;41.64
14067;BME280;7108;42.684;23.350;2023-02-18T14:49:41;95727.72;;;14.27;41.88
14067;BME280;7108;42.684;23.350;2023-02-18T14:55:04;95735.03;;;14.23;42.03
14067;BME280;7108;42.684;23.350;2023-02-18T15:00:00;95727.66;;;14.24;42.43
14067;BME280;7108;42.684;23.350;2023-02-18T15:02:27;95726.06;;;14.19;42.66
14067;BME280;7108;42.684;23.350;2023-02-18T15:05:14;95732.25;;;14.20;42.38
14067;BME280;7108;42.684;23.350;2023-02-18T15:07:40;95718.25;;;14.14;42.78
14067;BME280;7108;42.684;23.350;2023-02-18T15:10:12;95729.09;;;14.14;42.53
14067;BME280;7108;42.684;23.350;2023-02-18T15:12:38;95717.00;;;14.08;42.75
14067;BME280;7108;42.684;23.350;2023-02-18T15:15:05;95725.44;;;14.03;42.72
14067;BME280;7108;42.684;23.350;2023-02-18T15:17:31;95725.84;;;14.05;43.15
14067;BME280;7108;42.684;23.350;2023-02-18T15:19:59;95722.31;;;14.01;43.01
14067;BME280;7108;42.684;23.350;2023-02-18T15:22:31;95717.63;;;13.98;43.23
14067;BME280;7108;42.684;23.350;2023-02-18T15:24:58;95712.91;;;13.92;43.27
14067;BME280;7108;42.684;23.350;2023-02-18T15:27:27;95702.28;;;13.80;43.71
14067;BME280;7108;42.684;23.350;2023-02-18T15:30:18;95706.56;;;13.84;43.90
14067;BME280;7108;42.684;23.350;2023-02-18T15:32:54;95710.78;;;13.82;43.75
14067;BME280;7108;42.684;23.350;2023-02-18T15:35:21;95705.75;;;13.80;44.01
14067;BME280;7108;42.684;23.350;2023-02-18T15:37:54;95701.72;;;13.68;44.27
14067;BME280;7108;42.684;23.350;2023-02-18T15:40:26;95699.72;;;13.65;44.34
14067;BME280;7108;42.684;23.350;2023-02-18T15:43:03;95686.81;;;13.55;44.74
14067;BME280;7108;42.684;23.350;2023-02-18T15:45:32;95689.06;;;13.49;44.75
14067;BME280;7108;42.684;23.350;2023-02-18T15:47:59;95683.53;;;13.42;45.10
14067;BME280;7108;42.684;23.350;2023-02-18T15:50:32;95693.28;;;13.47;45.42
14067;BME280;7108;42.684;23.350;2023-02-18T15:53:05;95671.34;;;13.29;45.42
14067;BME280;7108;42.684;23.350;2023-02-18T15:55:36;95681.38;;;13.29;45.76
14067;BME280;7108;42.684;23.350;2023-02-18T15:58:25;95688.72;;;13.28;46.13
14067;BME280;7108;42.684;23.350;2023-02-18T16:00:59;95682.50;;;13.24;46.28
14067;BME280;7108;42.684;23.350;2023-02-18T16:08:34;95672.94;;;13.08;46.87